Time;durP1;ratioP1;P1;durP2;ratioP2;P2;SDS_P1;SDS_P2;PMS_P1;PMS_P2;Temp;Humidity;BMP_temperature;BMP_pressure;BME280_temperature;BME280_humidity;BME280_pressure;Samples;Min_cycle;Max_cycle;Signal;HPM_P1;HPM_P2
2022/09/04 00:01:01;;;;;;;11.73;6.20;;;;;;;19.11;100.00;101263.56;5037175;28;20025;-68
2022/09/04 00:03:35;;;;;;;9.10;6.88;;;;;;;19.14;100.00;101263.53;5032691;28;20109;-67
2022/09/04 00:06:07;;;;;;;24.42;6.97;;;;;;;19.15;100.00;101266.19;5048504;28;20411;-68
2022/09/04 00:08:44;;;;;;;8.43;6.38;;;;;;;19.15;100.00;101266.19;5038078;28;20027;-67
2022/09/04 00:11:33;;;;;;;12.95;7.38;;;;;;;19.09;100.00;101276.94;5050959;28;20090;-67
2022/09/04 00:14:04;;;;;;;9.52;6.55;;;;;;;19.08;100.00;101279.63;5047978;28;20025;-67
2022/09/04 00:16:32;;;;;;;15.18;7.00;;;;;;;19.07;100.00;101277.84;5052104;28;20024;-67
2022/09/04 00:19:02;;;;;;;8.77;6.65;;;;;;;19.02;100.00;101283.25;5041373;28;20029;-67
2022/09/04 00:21:36;;;;;;;11.52;7.07;;;;;;;18.91;100.00;101279.81;5043989;28;20060;-68
2022/09/04 00:24:12;;;;;;;11.25;6.50;;;;;;;18.84;100.00;101284.28;5032950;28;20507;-68
2022/09/04 00:26:49;;;;;;;9.25;6.75;;;;;;;18.83;100.00;101290.53;5048956;28;20026;-67
2022/09/04 00:29:28;;;;;;;33.42;11.07;;;;;;;18.92;100.00;101284.25;5047312;28;20021;-66
2022/09/04 00:32:02;;;;;;;17.52;10.00;;;;;;;18.98;100.00;101286.84;5049133;28;20060;-68
2022/09/04 00:35:21;;;;;;;17.90;10.48;;;;;;;19.02;100.00;101292.13;5051709;28;20033;-67
2022/09/04 00:38:36;;;;;;;19.45;10.65;;;;;;;19.07;100.00;101293.84;5031693;28;20778;-67
2022/09/04 00:41:26;;;;;;;20.83;11.07;;;;;;;19.10;100.00;101304.47;5037660;28;20116;-66
2022/09/04 00:44:48;;;;;;;20.85;10.70;;;;;;;19.09;100.00;101303.59;5047518;28;20104;-67
2022/09/04 00:47:24;;;;;;;21.73;11.27;;;;;;;19.09;100.00;101308.94;5024934;28;20461;-66
2022/09/04 00:50:05;;;;;;;20.35;10.23;;;;;;;19.08;100.00;101312.50;5028586;28;20056;-67
2022/09/04 00:52:58;;;;;;;20.80;10.43;;;;;;;19.16;100.00;101309.75;5040371;28;20044;-67
2022/09/04 00:55:33;;;;;;;16.95;10.60;;;;;;;19.05;100.00;101312.53;5047039;28;20036;-67
2022/09/04 00:58:29;;;;;;;17.33;10.30;;;;;;;18.93;100.00;101312.69;5049602;28;20029;-66
2022/09/04 01:00:57;;;;;;;15.57;10.18;;;;;;;18.81;100.00;101319.84;5035234;28;20584;-67
2022/09/04 01:04:04;;;;;;;17.17;10.90;;;;;;;18.75;100.00;101319.94;5044895;28;20893;-67
2022/09/04 01:06:38;;;;;;;15.02;9.68;;;;;;;18.73;100.00;101327.03;5044276;28;20549;-67
2022/09/04 01:09:34;;;;;;;16.13;10.30;;;;;;;18.71;100.00;101328.84;5036360;28;20095;-66
2022/09/04 01:12:16;;;;;;;17.05;10.77;;;;;;;18.70;100.00;101335.97;5045149;28;20029;-67
2022/09/04 01:14:54;;;;;;;17.88;9.90;;;;;;;18.69;100.00;101339.53;5053091;28;20040;-67
2022/09/04 01:17:21;;;;;;;14.23;10.38;;;;;;;18.63;100.00;101338.72;5055102;28;20025;-67
2022/09/04 01:20:28;;;;;;;13.32;9.50;;;;;;;18.50;100.00;101343.25;5046920;28;20385;-66
2022/09/04 01:23:28;;;;;;;15.25;9.73;;;;;;;18.46;100.00;101342.41;5051326;28;20033;-67
2022/09/04 01:26:10;;;;;;;13.82;9.95;;;;;;;18.45;100.00;101343.31;5052928;28;20045;-67
2022/09/04 01:28:46;;;;;;;19.00;10.35;;;;;;;18.44;100.00;101346.84;5037497;28;20112;-66
2022/09/04 01:31:30;;;;;;;12.85;10.43;;;;;;;18.43;100.00;101347.75;5043013;28;20033;-66
2022/09/04 01:34:07;;;;;;;;;;;;;;;18.42;100.00;101343.34;5043891;28;20023;-68
2022/09/04 01:37:05;;;;;;;16.13;11.70;;;;;;;18.45;100.00;101342.41;5048884;28;19916;-67
2022/09/04 01:39:34;;;;;;;20.23;13.23;;;;;;;18.46;100.00;101350.41;5035787;28;20040;-66
2022/09/04 01:42:13;;;;;;;16.33;14.25;;;;;;;18.52;100.00;101349.47;5044417;28;20558;-66
2022/09/04 01:44:39;;;;;;;24.33;16.23;;;;;;;18.61;100.00;101356.47;5049399;28;20104;-66
2022/09/04 01:47:20;;;;;;;17.15;14.25;;;;;;;18.69;100.00;101357.31;5052900;28;20451;-67
2022/09/04 01:50:12;;;;;;;17.05;15.07;;;;;;;18.74;100.00;101355.47;5036938;28;20496;-67
2022/09/04 01:52:47;;;;;;;17.65;13.85;;;;;;;18.76;100.00;101353.69;5048801;28;20076;-67
2022/09/04 01:55:25;;;;;;;15.88;13.50;;;;;;;18.75;100.00;101361.72;5046707;28;20098;-66
2022/09/04 01:58:02;;;;;;;20.20;14.35;;;;;;;18.79;100.00;101356.34;5043331;28;20106;-67
2022/09/04 02:00:33;;;;;;;18.65;13.77;;;;;;;18.84;100.00;101361.59;5052711;28;20035;-68
2022/09/04 02:03:24;;;;;;;16.25;13.57;;;;;;;18.79;100.00;101367.00;5050043;28;20473;-68
2022/09/04 02:06:14;;;;;;;19.90;14.27;;;;;;;18.80;100.00;101359.88;5052353;28;20056;-68
2022/09/04 02:09:14;;;;;;;16.58;14.73;;;;;;;18.74;100.00;101360.81;5040829;28;20037;-67
2022/09/04 02:11:50;;;;;;;17.20;14.20;;;;;;;18.69;100.00;101367.97;5041076;28;20040;-67
2022/09/04 02:15:08;;;;;;;19.45;14.25;;;;;;;18.61;100.00;101368.06;5037828;28;20035;-67
2022/09/04 02:17:47;;;;;;;16.88;13.82;;;;;;;18.54;100.00;101364.56;5002875;28;20046;-67
2022/09/04 02:20:22;;;;;;;15.63;13.38;;;;;;;18.47;100.00;101368.13;5045535;28;20048;-67
2022/09/04 02:23:29;;;;;;;18.08;14.13;;;;;;;18.42;100.00;101364.66;5050623;28;20017;-68
2022/09/04 02:26:04;;;;;;;14.88;13.35;;;;;;;18.35;100.00;101365.56;5044048;28;20048;-67
2022/09/04 02:28:51;;;;;;;17.42;14.32;;;;;;;18.36;100.00;101370.00;5041705;28;20546;-67
2022/09/04 02:31:22;;;;;;;18.98;14.93;;;;;;;18.38;100.00;101370.91;5038159;28;20079;-66
2022/09/04 02:34:00;;;;;;;22.38;15.50;;;;;;;18.36;100.00;101376.22;5034992;28;20030;-66
2022/09/04 02:36:37;;;;;;;17.88;15.05;;;;;;;18.35;100.00;101376.22;5036337;28;20492;-67
2022/09/04 02:39:19;;;;;;;17.77;14.02;;;;;;;18.34;100.00;101382.47;5045131;28;20043;-67
2022/09/04 02:42:19;;;;;;;21.30;15.10;;;;;;;18.35;100.00;101379.81;5040290;28;20029;-66
2022/09/04 02:45:07;;;;;;;15.88;13.82;;;;;;;18.33;100.00;101386.03;5006842;28;20053;-66
2022/09/04 02:47:41;;;;;;;22.77;14.13;;;;;;;18.37;100.00;101383.31;5031909;28;20056;-66
2022/09/04 02:50:19;;;;;;;22.35;15.32;;;;;;;18.33;100.00;101375.38;5034425;28;20037;-67
2022/09/04 02:53:07;;;;;;;19.65;14.27;;;;;;;18.31;100.00;101382.47;5050422;28;20035;-67
2022/09/04 02:55:38;;;;;;;16.65;13.85;;;;;;;18.29;100.00;101389.63;5034219;28;20079;-68
2022/09/04 02:58:21;;;;;;;20.83;14.95;;;;;;;18.29;100.00;101385.16;5034096;28;20056;-67
2022/09/04 03:01:01;;;;;;;16.47;14.50;;;;;;;18.34;100.00;101385.16;5036009;28;20029;-66
2022/09/04 03:03:34;;;;;;;18.83;15.30;;;;;;;18.29;100.00;101386.94;5034036;28;20057;-68
2022/09/04 03:06:07;;;;;;;18.98;13.73;;;;;;;18.27;100.00;101391.38;5034616;28;20032;-67
2022/09/04 03:09:07;;;;;;;15.68;13.82;;;;;;;18.23;100.00;101392.31;5041575;28;20104;-67
2022/09/04 03:11:40;;;;;;;17.05;14.20;;;;;;;18.15;100.00;101387.91;5048459;28;20428;-67
2022/09/04 03:14:14;;;;;;;16.75;15.00;;;;;;;18.10;100.00;101395.03;5045377;28;20018;-67
2022/09/04 03:16:50;;;;;;;22.52;14.40;;;;;;;18.17;100.00;101394.09;5036663;28;20062;-68
2022/09/04 03:19:42;;;;;;;18.48;14.35;;;;;;;18.12;100.00;101398.59;5034150;28;20112;-66
2022/09/04 03:22:29;;;;;;;18.15;14.02;;;;;;;18.01;100.00;101397.75;5046930;28;20025;-67
2022/09/04 03:25:00;;;;;;;16.88;14.15;;;;;;;18.00;100.00;101404.88;5037528;28;20099;-67
2022/09/04 03:27:29;;;;;;;17.75;14.68;;;;;;;17.99;100.00;101408.41;5033998;28;20029;-67
2022/09/04 03:30:02;;;;;;;16.83;14.15;;;;;;;17.96;100.00;101399.56;5039745;28;20059;-68
2022/09/04 03:32:40;;;;;;;;;;;;;;;17.93;100.00;101412.88;5050710;28;20025;-68
2022/09/04 03:35:32;;;;;;;22.33;16.17;;;;;;;17.87;100.00;101404.00;5047079;28;19924;-67
2022/09/04 03:38:09;;;;;;;19.42;14.75;;;;;;;17.77;100.00;101407.63;5039160;28;20033;-68
2022/09/04 03:40:56;;;;;;;20.08;15.35;;;;;;;17.73;100.00;101411.19;5040202;28;20045;-68
2022/09/04 03:43:40;;;;;;;24.10;15.60;;;;;;;17.76;100.00;101405.84;5039822;28;20021;-66
2022/09/04 03:46:11;;;;;;;17.98;16.05;;;;;;;17.72;100.00;101417.38;5051070;28;20025;-67
2022/09/04 03:48:45;;;;;;;19.60;16.35;;;;;;;17.68;100.00;101421.81;5042515;28;20520;-67
2022/09/04 03:51:27;;;;;;;18.48;15.02;;;;;;;17.68;100.00;101418.28;5039679;28;20037;-67
2022/09/04 03:54:01;;;;;;;17.65;15.52;;;;;;;17.69;100.00;101425.38;5051592;28;20067;-67
2022/09/04 03:56:42;;;;;;;19.95;16.10;;;;;;;17.72;100.00;101428.03;5040144;28;20033;-67
2022/09/04 03:59:42;;;;;;;18.85;16.58;;;;;;;17.87;100.00;101429.75;5042672;28;20433;-68
2022/09/04 04:02:33;;;;;;;24.15;16.58;;;;;;;17.86;100.00;101442.19;5039635;28;20473;-68
2022/09/04 04:05:09;;;;;;;20.38;15.30;;;;;;;17.77;100.00;101434.22;5034170;28;20481;-68
2022/09/04 04:07:40;;;;;;;19.33;16.25;;;;;;;17.79;100.00;101436.88;5036158;28;20029;-68
2022/09/04 04:10:44;;;;;;;19.83;15.80;;;;;;;17.76;100.00;101434.25;5032913;28;20049;-68
2022/09/04 04:13:25;;;;;;;22.27;16.77;;;;;;;17.74;100.00;101436.88;5033250;28;20033;-66
2022/09/04 04:16:18;;;;;;;21.13;16.10;;;;;;;17.70;100.00;101437.78;5034601;28;20148;-66
2022/09/04 04:19:05;;;;;;;18.88;15.65;;;;;;;17.68;100.00;101439.59;5035119;28;20483;-67
2022/09/04 04:21:54;;;;;;;20.00;15.55;;;;;;;17.74;100.00;101431.56;5051487;28;20033;-66
2022/09/04 04:24:31;;;;;;;18.77;15.57;;;;;;;17.69;100.00;101433.38;5049673;28;20033;-67
2022/09/04 04:27:15;;;;;;;20.48;16.60;;;;;;;17.67;100.00;101435.16;5033499;28;20116;-67
2022/09/04 04:29:59;;;;;;;18.48;15.90;;;;;;;17.64;100.00;101446.69;5048899;28;20111;-68
2022/09/04 04:32:48;;;;;;;25.00;16.55;;;;;;;17.61;100.00;101453.81;5050267;28;20515;-67
2022/09/04 04:35:25;;;;;;;24.80;16.48;;;;;;;17.57;100.00;101455.59;5041593;28;20056;-67
2022/09/04 04:37:52;;;;;;;21.25;16.58;;;;;;;17.56;100.00;101452.94;5050869;28;20099;-66
2022/09/04 04:40:20;;;;;;;24.15;16.42;;;;;;;17.52;100.00;101452.91;5051139;28;20386;-67
2022/09/04 04:42:53;;;;;;;23.30;17.48;;;;;;;17.48;100.00;101456.47;5043747;28;20101;-67
2022/09/04 04:45:50;;;;;;;;;;;;;;;17.43;100.00;101460.03;5047655;28;20059;-68
2022/09/04 04:48:28;;;;;;;25.08;17.45;;;;;;;17.39;100.00;101459.19;5040929;28;20292;-66
2022/09/04 04:51:18;;;;;;;27.58;18.40;;;;;;;17.33;100.00;101464.50;5042734;28;20033;-67
2022/09/04 04:54:23;;;;;;;51.10;25.58;;;;;;;17.31;100.00;101466.28;5037075;28;20029;-68
2022/09/04 04:56:49;;;;;;;33.40;22.05;;;;;;;17.32;100.00;101458.31;5045088;28;20537;-67
2022/09/04 04:59:23;;;;;;;24.47;18.07;;;;;;;17.36;100.00;101459.16;5040293;28;20108;-67
2022/09/04 05:02:15;;;;;;;25.10;18.42;;;;;;;17.40;100.00;101466.25;5042589;28;20279;-68
2022/09/04 05:04:52;;;;;;;30.35;20.42;;;;;;;17.44;100.00;101473.34;5040931;28;20366;-66
2022/09/04 05:07:40;;;;;;;24.17;18.80;;;;;;;17.34;100.00;101471.59;5040073;28;20033;-66
2022/09/04 05:10:40;;;;;;;28.70;18.50;;;;;;;17.33;100.00;101475.13;5053765;28;20072;-67
2022/09/04 05:13:23;;;;;;;24.35;18.15;;;;;;;17.30;100.00;101476.03;5047168;28;20033;-67
2022/09/04 05:16:13;;;;;;;21.48;16.80;;;;;;;17.24;100.00;101486.69;5040092;28;20384;-67
2022/09/04 05:18:41;;;;;;;22.33;18.35;;;;;;;17.17;100.00;101480.47;5050401;28;20435;-67
2022/09/04 05:21:18;;;;;;;22.63;19.55;;;;;;;17.18;100.00;101486.69;5048667;28;20030;-67
2022/09/04 05:23:58;;;;;;;25.00;18.65;;;;;;;17.19;100.00;101492.00;5055924;28;20037;-67
2022/09/04 05:26:32;;;;;;;22.52;18.63;;;;;;;17.17;100.00;101493.78;5059306;28;20029;-67
2022/09/04 05:29:06;;;;;;;23.80;17.90;;;;;;;17.14;100.00;101501.72;5053598;28;20537;-67
2022/09/04 05:31:57;;;;;;;23.13;18.15;;;;;;;17.14;100.00;101498.19;5051022;28;20036;-66
2022/09/04 05:34:53;;;;;;;25.35;18.48;;;;;;;17.13;100.00;101507.97;5053891;28;20052;-67
2022/09/04 05:37:28;;;;;;;21.27;17.92;;;;;;;17.14;100.00;101507.06;5043310;28;20064;-68
2022/09/04 05:40:11;;;;;;;26.10;18.60;;;;;;;17.21;100.00;101523.03;5040774;28;20040;-66
2022/09/04 05:42:40;;;;;;;21.25;18.00;;;;;;;17.24;100.00;101513.28;5055070;28;20427;-67
2022/09/04 05:45:22;;;;;;;25.73;18.73;;;;;;;17.30;100.00;101531.00;5054087;28;20032;-66
2022/09/04 05:47:57;;;;;;;24.80;18.40;;;;;;;17.29;100.00;101534.53;5047601;28;20029;-67
2022/09/04 05:50:22;;;;;;;27.60;19.23;;;;;;;17.30;100.00;101533.66;5055597;28;20048;-67
2022/09/04 05:53:28;;;;;;;25.00;18.88;;;;;;;17.35;100.00;101526.59;5047582;28;20033;-66
2022/09/04 05:56:21;;;;;;;22.27;18.98;;;;;;;17.45;100.00;101535.44;5047409;28;20052;-66
2022/09/04 05:58:57;;;;;;;21.23;16.17;;;;;;;17.53;100.00;101545.16;5051773;28;20021;-67
2022/09/04 06:02:15;;;;;;;24.77;18.40;;;;;;;17.63;100.00;101547.81;5042783;28;20032;-68
2022/09/04 06:04:46;;;;;;;23.95;18.73;;;;;;;17.68;100.00;101543.38;5048708;28;20090;-67
2022/09/04 06:07:28;;;;;;;23.42;18.60;;;;;;;17.74;100.00;101546.03;5045114;28;20086;-67
2022/09/04 06:09:59;;;;;;;21.85;18.90;;;;;;;17.79;100.00;101538.91;5036966;28;20100;-68
2022/09/04 06:12:46;;;;;;;24.55;18.63;;;;;;;17.85;100.00;101548.66;5048742;28;20029;-68
2022/09/04 06:16:00;;;;;;;24.92;19.08;;;;;;;17.96;100.00;101549.56;5054724;28;20052;-68
2022/09/04 06:18:31;;;;;;;23.42;18.15;;;;;;;18.05;100.00;101555.75;5022647;28;20104;-67
2022/09/04 06:21:08;;;;;;;26.20;18.65;;;;;;;18.11;100.00;101548.63;5037923;28;20040;-68
2022/09/04 06:24:10;;;;;;;22.73;19.63;;;;;;;18.17;100.00;101556.59;5048244;28;20033;-67
2022/09/04 06:26:57;;;;;;;23.80;19.20;;;;;;;18.24;100.00;101552.13;5044764;28;20029;-67
2022/09/04 06:29:42;;;;;;;20.98;17.50;;;;;;;18.32;100.00;101557.44;5035423;28;20067;-67
2022/09/04 06:32:19;;;;;;;24.83;18.35;;;;;;;18.32;100.00;101555.63;5039674;28;20029;-67
2022/09/04 06:35:08;;;;;;;19.30;17.20;;;;;;;18.35;100.00;101560.06;5048450;28;20029;-67
2022/09/04 06:37:54;;;;;;;23.77;18.70;;;;;;;18.35;100.00;101565.41;5038857;28;20036;-67
2022/09/04 06:40:35;;;;;;;23.23;19.17;;;;;;;18.36;100.00;101577.84;5036554;28;20017;-68
2022/09/04 06:43:07;;;;;;;23.95;18.73;;;;;;;18.33;100.00;101577.88;5041190;28;20028;-68
2022/09/04 06:45:47;;;;;;;24.95;19.55;;;;;;;18.39;100.00;101575.16;5048639;28;20029;-68
2022/09/04 06:49:00;;;;;;;26.52;20.92;;;;;;;18.42;100.00;101574.25;5038819;28;20116;-68
2022/09/04 06:51:33;;;;;;;25.52;20.08;;;;;;;18.47;100.00;101578.66;5029747;28;20392;-68
2022/09/04 06:54:27;;;;;;;27.77;20.50;;;;;;;18.51;100.00;101572.44;5039839;28;20028;-66
2022/09/04 06:57:03;;;;;;;;;;;;;;;18.59;100.00;101577.75;5036815;28;20022;-67
2022/09/04 06:59:59;;;;;;;24.20;20.20;;;;;;;18.65;100.00;101580.38;5038546;28;19913;-67
2022/09/04 07:02:40;;;;;;;29.25;19.15;;;;;;;18.71;100.00;101584.78;5044194;28;20380;-67
2022/09/04 07:05:24;;;;;;;25.45;21.23;;;;;;;18.77;100.00;101579.41;5049101;28;20017;-67
2022/09/04 07:08:16;;;;;;;26.13;19.95;;;;;;;18.83;100.00;101590.06;5043574;28;20033;-67
2022/09/04 07:10:49;;;;;;;25.35;20.33;;;;;;;18.91;100.00;101594.47;5036453;28;20073;-67
2022/09/04 07:13:34;;;;;;;29.65;20.25;;;;;;;18.98;100.00;101596.25;5045530;28;20033;-66
2022/09/04 07:16:10;;;;;;;27.40;20.30;;;;;;;19.04;100.00;101593.50;5063376;28;20036;-66
2022/09/04 07:18:54;;;;;;;25.30;20.70;;;;;;;19.12;100.00;101596.13;5069420;28;20028;-67
2022/09/04 07:21:22;;;;;;;;;;;;;;;19.14;100.00;101599.66;5062619;28;20033;-68
2022/09/04 07:24:14;;;;;;;30.23;21.70;;;;;;;19.16;100.00;101604.09;5073908;28;19916;-66
2022/09/04 07:27:00;;;;;;;29.42;21.13;;;;;;;19.24;100.00;101604.06;5052891;28;20040;-66
2022/09/04 07:29:39;;;;;;;27.67;21.08;;;;;;;19.31;100.00;101604.88;5068411;28;20029;-66
2022/09/04 07:32:29;;;;;;;28.45;20.35;;;;;;;19.41;100.00;101613.72;5063814;28;20039;-67
2022/09/04 07:35:13;;;;;;;25.00;18.05;;;;;;;19.54;100.00;101608.25;5055657;28;20033;-67
2022/09/04 07:37:57;;;;;;;27.65;20.73;;;;;;;19.62;100.00;101618.00;5073679;28;20085;-67
2022/09/04 07:40:32;;;;;;;26.75;21.55;;;;;;;19.70;100.00;101616.13;5062277;28;20063;-67
2022/09/04 07:43:21;;;;;;;29.27;21.15;;;;;;;19.80;100.00;101614.25;5043533;28;20504;-67
2022/09/04 07:46:02;;;;;;;27.27;21.33;;;;;;;19.92;100.00;101615.97;5033593;28;20025;-67
2022/09/04 07:48:49;;;;;;;27.98;21.38;;;;;;;20.03;100.00;101614.94;5040092;28;20112;-67
2022/09/04 07:51:28;;;;;;;25.05;19.73;;;;;;;20.16;100.00;101615.72;5052357;28;20028;-67
2022/09/04 07:54:16;;;;;;;30.30;21.63;;;;;;;20.26;100.00;101627.16;5047785;28;20017;-66
2022/09/04 07:56:56;;;;;;;25.85;20.10;;;;;;;20.36;100.00;101630.63;5048313;28;20485;-66
2022/09/04 07:59:46;;;;;;;28.73;20.83;;;;;;;20.45;100.00;101633.19;5038025;28;20057;-68
2022/09/04 08:02:49;;;;;;;22.27;19.15;;;;;;;20.57;100.00;101633.97;5034591;28;20093;-67
2022/09/04 08:05:22;;;;;;;31.00;22.23;;;;;;;20.65;100.00;101638.28;5040932;28;20029;-67
2022/09/04 08:07:53;;;;;;;28.75;22.58;;;;;;;20.68;100.00;101635.59;5044297;28;20100;-67
2022/09/04 08:10:30;;;;;;;31.42;23.50;;;;;;;20.71;100.00;101646.28;5034759;28;20098;-67
2022/09/04 08:13:34;;;;;;;29.98;21.48;;;;;;;20.83;100.00;101650.56;5038140;28;20040;-67
2022/09/04 08:16:09;;;;;;;;;;;;;;;20.90;100.00;101646.03;5043076;28;20029;-67
2022/09/04 08:19:12;;;;;;;28.35;22.83;;;;;;;21.01;100.00;101649.47;5040728;28;19912;-69
2022/09/04 08:21:41;;;;;;;28.98;22.65;;;;;;;21.12;100.00;101651.97;5036660;28;20460;-69
2022/09/04 08:24:31;;;;;;;29.40;22.67;;;;;;;21.22;100.00;101653.59;5046006;28;20032;-69
2022/09/04 08:27:08;;;;;;;28.52;22.90;;;;;;;21.36;100.00;101649.81;5040334;28;20029;-69
2022/09/04 08:30:03;;;;;;;34.58;25.85;;;;;;;21.50;100.00;101654.97;5059456;28;20123;-68
2022/09/04 08:32:41;;;;;;;32.20;25.42;;;;;;;21.60;100.00;101653.06;5054374;28;20035;-68
2022/09/04 08:35:29;;;;;;;26.65;20.70;;;;;;;21.76;100.00;101659.94;5061025;28;20024;-68
2022/09/04 08:38:15;;;;;;;32.67;22.60;;;;;;;21.93;100.00;101662.31;5048736;28;20504;-68
2022/09/04 08:40:41;;;;;;;34.83;24.40;;;;;;;22.05;100.00;101658.53;5045546;28;20425;-67
2022/09/04 08:43:28;;;;;;;37.88;25.08;;;;;;;22.15;100.00;101661.91;5043127;28;20033;-69
2022/09/04 08:46:21;;;;;;;27.08;21.05;;;;;;;22.34;100.00;101668.75;5055060;28;20033;-68
2022/09/04 08:49:13;;;;;;;31.30;24.35;;;;;;;22.48;100.00;101678.31;5044335;28;20110;-68
2022/09/04 08:51:59;;;;;;;26.05;21.50;;;;;;;22.66;100.00;101677.94;5047668;28;20068;-68
2022/09/04 08:54:47;;;;;;;39.80;28.13;;;;;;;22.80;100.00;101672.25;5059423;28;20077;-68
2022/09/04 08:57:39;;;;;;;33.00;26.05;;;;;;;22.81;100.00;101678.53;5047219;28;20036;-68
2022/09/04 09:00:14;;;;;;;33.20;25.63;;;;;;;22.90;100.00;101668.47;5047537;28;20033;-68
2022/09/04 09:03:01;;;;;;;34.80;25.10;;;;;;;22.98;100.00;101675.47;5053957;28;20028;-69
2022/09/04 09:06:09;;;;;;;36.45;26.88;;;;;;;23.06;100.00;101676.19;5042771;28;20446;-67
2022/09/04 09:09:18;;;;;;;36.30;28.83;;;;;;;23.13;100.00;101680.56;5034785;28;20051;-66
2022/09/04 09:12:22;;;;;;;35.67;26.95;;;;;;;23.21;100.00;101683.03;5061785;28;20040;-67
2022/09/04 09:15:41;;;;;;;39.38;27.98;;;;;;;23.29;100.00;101688.25;5048640;28;20028;-68
2022/09/04 09:18:16;;;;;;;41.13;30.05;;;;;;;23.37;100.00;101689.84;5013901;28;20026;-68
2022/09/04 09:20:44;;;;;;;37.03;27.33;;;;;;;23.42;100.00;101692.41;5054853;28;20060;-67
2022/09/04 09:23:31;;;;;;;30.67;23.83;;;;;;;23.58;100.00;101691.13;5048734;28;20082;-68
2022/09/04 09:26:29;;;;;;;35.67;27.05;;;;;;;23.76;100.00;101696.97;5047953;28;20050;-69
2022/09/04 09:29:15;;;;;;;31.95;23.60;;;;;;;23.92;100.00;101693.94;5046734;28;20082;-68
2022/09/04 09:32:00;;;;;;;30.30;23.30;;;;;;;23.98;100.00;101689.25;5051776;28;20521;-69
2022/09/04 09:34:34;;;;;;;29.95;22.67;;;;;;;23.95;100.00;101685.78;5065159;28;20425;-68
2022/09/04 09:37:30;;;;;;;34.40;22.98;;;;;;;24.08;100.00;101692.59;5067355;28;20095;-67
2022/09/04 09:40:35;;;;;;;29.42;23.75;;;;;;;24.11;100.00;101705.97;5055654;28;20028;-67
2022/09/04 09:43:40;;;;;;;33.65;23.92;;;;;;;24.24;100.00;101696.66;5060297;28;20039;-68
2022/09/04 09:46:18;;;;;;;31.60;23.17;;;;;;;24.23;100.00;101699.38;5058504;28;20025;-68
2022/09/04 09:48:49;;;;;;;36.83;21.00;;;;;;;24.41;100.00;101689.91;5045845;28;20480;-68
2022/09/04 09:51:51;;;;;;;28.55;20.05;;;;;;;24.62;100.00;101687.56;5048820;28;20028;-68
2022/09/04 09:54:41;;;;;;;27.75;19.88;;;;;;;24.78;100.00;101699.66;5060264;28;20033;-68
2022/09/04 09:57:31;;;;;;;29.77;19.42;;;;;;;24.87;100.00;101694.00;5056702;28;20033;-68
2022/09/04 10:00:16;;;;;;;28.58;21.75;;;;;;;24.91;100.00;101684.03;5054215;28;20025;-69
2022/09/04 10:02:56;;;;;;;30.00;21.83;;;;;;;25.06;100.00;101693.44;5055616;28;20024;-68
2022/09/04 10:05:54;;;;;;;20.83;15.43;;;;;;;25.19;100.00;101683.16;5046902;28;20033;-68
2022/09/04 10:08:41;;;;;;;24.25;16.83;;;;;;;25.44;100.00;101691.38;5038239;28;20056;-68
2022/09/04 10:11:25;;;;;;;25.58;17.58;;;;;;;25.64;100.00;101689.84;5060153;28;20053;-68
2022/09/04 10:14:32;;;;;;;23.20;17.27;;;;;;;25.74;100.00;101685.91;5043744;28;20037;-68
2022/09/04 10:17:21;;;;;;;36.30;21.15;;;;;;;25.62;100.00;101689.91;5042099;28;20032;-68
2022/09/04 10:20:19;;;;;;;23.20;16.80;;;;;;;25.64;100.00;101695.22;5042999;28;20041;-66
2022/09/04 10:22:59;;;;;;;27.35;18.95;;;;;;;25.49;100.00;101699.31;5060188;28;20483;-68
2022/09/04 10:25:59;;;;;;;23.38;16.67;;;;;;;25.39;100.00;101696.03;5052472;28;20083;-69
2022/09/04 10:28:55;;;;;;;23.30;16.10;;;;;;;25.24;100.00;101697.38;5026228;28;20044;-69
2022/09/04 10:31:58;;;;;;;22.73;16.52;;;;;;;25.18;100.00;101697.59;5045117;28;20033;-68
2022/09/04 10:34:38;;;;;;;23.70;17.07;;;;;;;25.13;100.00;101694.16;5045213;28;20093;-68
2022/09/04 10:37:39;;;;;;;21.13;14.70;;;;;;;25.19;100.00;101688.53;5043615;28;20345;-71
2022/09/04 10:40:34;;;;;;;20.23;12.60;;;;;;;25.41;100.00;101691.50;5053535;28;20029;-68
2022/09/04 10:43:24;;;;;;;19.42;13.00;;;;;;;25.63;100.00;101688.09;5045954;28;20419;-69
2022/09/04 10:46:09;;;;;;;15.55;11.90;;;;;;;25.68;100.00;101692.41;5037180;28;20021;-68
2022/09/04 10:49:14;;;;;;;16.25;10.93;;;;;;;25.85;100.00;101702.59;5052960;28;20420;-68
2022/09/04 10:52:21;;;;;;;10.02;7.70;;;;;;;25.88;100.00;101702.53;5042573;28;20032;-68
2022/09/04 10:55:06;;;;;;;16.52;10.02;;;;;;;25.89;100.00;101706.97;5037131;28;20393;-67
2022/09/04 10:57:58;;;;;;;9.80;5.93;;;;;;;26.00;97.60;101705.72;5045097;28;20342;-67
2022/09/04 11:00:51;;;;;;;11.20;5.90;;;;;;;26.09;100.00;101710.84;5044882;28;20069;-68
2022/09/04 11:03:42;;;;;;;11.60;6.25;;;;;;;26.05;96.07;101703.78;5048450;28;20080;-67
2022/09/04 11:06:22;;;;;;;10.90;7.00;;;;;;;26.17;95.83;101705.19;5046857;28;20431;-67
2022/09/04 11:09:09;;;;;;;9.85;6.13;;;;;;;26.49;93.57;101711.22;5042022;28;20160;-68
2022/09/04 11:11:43;;;;;;;12.57;8.10;;;;;;;26.70;91.03;101709.56;5039941;28;20045;-67
2022/09/04 11:14:51;;;;;;;10.02;5.78;;;;;;;26.88;89.69;101706.16;5041808;28;20075;-68
2022/09/04 11:17:35;;;;;;;6.70;5.15;;;;;;;26.78;84.52;101707.47;5042514;28;20060;-67
2022/09/04 11:20:39;;;;;;;10.82;6.63;;;;;;;26.92;84.43;101702.41;5039441;28;20036;-67
2022/09/04 11:23:13;;;;;;;;;;;;;;;27.04;84.83;101713.69;5046307;28;20048;-67
2022/09/04 11:26:12;;;;;;;11.60;6.93;;;;;;;27.16;84.76;101713.22;5053573;28;20419;-66
2022/09/04 11:28:55;;;;;;;10.38;7.68;;;;;;;27.41;84.28;101698.75;5044379;28;20495;-68
2022/09/04 11:31:34;;;;;;;;;;;;;;;27.50;85.84;101698.38;5054511;28;20481;-67
2022/09/04 11:34:05;;;;;;;14.10;7.55;;;;;;;27.55;83.68;101703.59;5043183;28;19912;-66
2022/09/04 11:36:39;;;;;;;12.18;7.47;;;;;;;27.42;84.67;101703.22;5044445;28;20071;-68
2022/09/04 11:39:17;;;;;;;12.90;8.45;;;;;;;27.46;84.65;101710.25;5048247;28;20461;-67
2022/09/04 11:41:49;;;;;;;9.38;6.30;;;;;;;27.86;85.27;101708.63;5042686;28;20312;-66
2022/09/04 11:44:26;;;;;;;8.10;3.00;;;;;;;28.56;74.33;101703.75;5045840;28;20060;-67
2022/09/04 11:47:02;;;;;;;7.88;4.00;;;;;;;28.96;70.58;101705.59;5040932;28;20037;-67
2022/09/04 11:49:49;;;;;;;5.30;3.50;;;;;;;29.15;66.84;101698.34;5036600;28;20025;-67
2022/09/04 11:52:43;;;;;;;5.43;3.50;;;;;;;29.20;67.50;101699.00;5055781;28;20025;-68
2022/09/04 11:55:23;;;;;;;7.97;4.50;;;;;;;29.48;66.25;101703.13;5041671;28;20036;-68
2022/09/04 11:58:23;;;;;;;8.18;4.90;;;;;;;29.05;68.90;101707.88;5043120;28;20112;-67
2022/09/04 12:01:20;;;;;;;6.97;4.30;;;;;;;29.08;69.93;101714.03;5045463;28;20025;-67
2022/09/04 12:04:22;;;;;;;4.80;3.28;;;;;;;29.04;66.86;101714.25;5039364;28;20020;-67
2022/09/04 12:07:12;;;;;;;4.10;2.40;;;;;;;29.14;66.27;101712.88;5039102;28;20034;-67
2022/09/04 12:10:07;;;;;;;5.13;2.70;;;;;;;29.33;66.73;101702.03;5051989;28;20078;-68
2022/09/04 12:13:15;;;;;;;3.55;2.10;;;;;;;29.13;62.36;101708.38;5033501;28;20621;-68
2022/09/04 12:16:03;;;;;;;5.32;2.47;;;;;;;29.18;63.06;101705.44;5029666;28;20457;-67
2022/09/04 12:19:03;;;;;;;5.25;3.70;;;;;;;29.11;65.91;101710.28;5041764;28;20488;-67
2022/09/04 12:21:56;;;;;;;7.00;4.30;;;;;;;29.11;66.02;101715.69;5048043;28;20040;-66
2022/09/04 12:24:45;;;;;;;6.97;4.67;;;;;;;28.43;69.65;101718.78;5039520;28;20478;-67
2022/09/04 12:27:29;;;;;;;8.90;5.10;;;;;;;28.53;69.14;101719.28;5058621;28;20082;-66